createdAt,value
2023-05-25T00:01:01.164Z,99848.69
2023-05-25T00:03:31.260Z,99842.72
2023-05-25T00:06:01.534Z,99845.31
2023-05-25T00:08:31.196Z,99849.53
2023-05-25T00:10:59.373Z,99851.22
2023-05-25T00:13:27.360Z,99852.06
2023-05-25T00:15:55.215Z,99854.59
2023-05-25T00:18:24.764Z,99857.13
2023-05-25T00:20:54.122Z,99857.97
2023-05-25T00:23:22.237Z,99853.78
2023-05-25T00:25:51.509Z,99858.81
2023-05-25T00:28:19.454Z,99869.81
2023-05-25T00:30:47.387Z,99861.38
2023-05-25T00:33:15.634Z,99869.84
2023-05-25T00:35:44.788Z,99873.22
2023-05-25T00:38:14.489Z,99876.63
2023-05-25T00:40:42.639Z,99859.75
2023-05-25T00:43:12.651Z,99880.00
2023-05-25T00:45:41.751Z,99883.34
2023-05-25T00:48:11.388Z,99882.47
2023-05-25T00:50:40.705Z,99871.50
2023-05-25T00:53:10.519Z,99871.47
2023-05-25T00:55:42.391Z,99878.16
2023-05-25T00:58:14.311Z,99874.78
2023-05-25T01:00:46.700Z,99878.13
2023-05-25T01:03:21.829Z,99878.09
2023-05-25T01:05:55.299Z,99872.16
2023-05-25T01:08:26.511Z,99867.09
2023-05-25T01:10:55.207Z,99883.16
2023-05-25T01:13:24.665Z,99885.69
2023-05-25T01:15:53.611Z,99884.84
2023-05-25T01:18:21.465Z,99881.47
2023-05-25T01:21:02.029Z,99873.88
2023-05-25T01:23:35.982Z,99879.72
2023-05-25T01:26:10.417Z,99882.22
2023-05-25T01:28:42.025Z,99874.66
2023-05-25T01:31:10.583Z,99877.94
2023-05-25T01:33:39.509Z,99885.47
2023-05-25T01:36:08.913Z,99890.50
2023-05-25T01:38:38.511Z,99880.34
2023-05-25T01:41:06.526Z,99889.56
2023-05-25T01:43:34.501Z,99887.94
2023-05-25T01:46:11.827Z,99893.00
2023-05-25T01:48:49.586Z,99893.00
2023-05-25T01:51:26.728Z,99889.66
2023-05-25T01:54:00.180Z,99882.09
2023-05-25T01:56:31.998Z,99884.59
2023-05-25T01:59:02.566Z,99884.59
2023-05-25T02:01:34.576Z,99884.63
2023-05-25T02:04:03.321Z,99881.25
2023-05-25T02:06:36.514Z,99877.88
2023-05-25T02:09:07.358Z,99881.25
2023-05-25T02:11:35.343Z,99878.72
2023-05-25T02:14:03.233Z,99884.59
2023-05-25T02:16:31.186Z,99883.75
2023-05-25T02:19:01.145Z,99887.13
2023-05-25T02:21:29.175Z,99891.34
2023-05-25T02:23:59.097Z,99891.31
2023-05-25T02:26:27.366Z,99884.44
2023-05-25T02:28:55.255Z,99897.97
2023-05-25T02:31:23.142Z,99889.56
2023-05-25T02:33:51.126Z,99895.38
2023-05-25T02:36:21.108Z,99892.81
2023-05-25T02:38:52.171Z,99889.44
2023-05-25T02:41:22.155Z,99891.03
2023-05-25T02:43:50.047Z,99899.44
2023-05-25T02:46:17.964Z,99903.66
2023-05-25T02:48:46.641Z,99906.25
2023-05-25T02:51:14.915Z,99904.50
2023-05-25T02:53:43.003Z,99908.75
2023-05-25T02:56:11.323Z,99910.47
2023-05-25T02:58:40.989Z,99911.13
2023-05-25T03:01:18.717Z,99910.94
2023-05-25T03:03:53.109Z,99910.13
2023-05-25T03:06:26.205Z,99919.31
2023-05-25T03:09:04.996Z,99913.41
2023-05-25T03:11:33.538Z,99921.84
2023-05-25T03:14:07.054Z,99921.84
2023-05-25T03:16:36.643Z,99920.19
2023-05-25T03:19:05.686Z,99919.41
2023-05-25T03:21:36.211Z,99927.84
2023-05-25T03:24:04.439Z,99936.19
2023-05-25T03:26:32.829Z,99919.31
2023-05-25T03:29:02.249Z,99928.59
2023-05-25T03:31:32.067Z,99929.56
2023-05-25T03:33:59.998Z,99933.94
2023-05-25T03:36:28.409Z,99938.22
2023-05-25T03:38:56.475Z,99940.88
2023-05-25T03:41:24.496Z,99936.69
2023-05-25T03:43:53.069Z,99932.53
2023-05-25T03:46:21.753Z,99926.63
2023-05-25T03:48:51.074Z,99941.75
2023-05-25T03:51:19.115Z,99936.69
2023-05-25T03:53:47.058Z,99933.31
2023-05-25T03:56:14.928Z,99944.22
2023-05-25T03:58:42.822Z,99947.66
2023-05-25T04:01:12.459Z,99930.78
2023-05-25T04:03:40.557Z,99942.63
2023-05-25T04:06:10.076Z,99940.94
2023-05-25T04:08:40.934Z,99946.91
2023-05-25T04:11:08.855Z,99949.41
2023-05-25T04:13:36.869Z,99949.38
2023-05-25T04:16:07.091Z,99945.19
2023-05-25T04:18:36.129Z,99951.16
2023-05-25T04:21:07.040Z,99947.84
2023-05-25T04:23:37.833Z,99952.13
2023-05-25T04:26:10.170Z,99951.38
2023-05-25T04:28:41.738Z,99958.06
2023-05-25T04:31:29.925Z,99958.94
2023-05-25T04:34:21.523Z,99927.78
2023-05-25T04:37:05.663Z,99955.66
2023-05-25T04:39:35.687Z,99947.22
2023-05-25T04:42:04.597Z,99952.31
2023-05-25T04:44:33.932Z,99955.66
2023-05-25T04:47:03.051Z,99961.59
2023-05-25T04:49:34.356Z,99960.91
2023-05-25T04:52:02.348Z,99965.25
2023-05-25T04:54:31.880Z,99971.25
2023-05-25T04:57:04.222Z,99965.25
2023-05-25T04:59:33.176Z,99967.69
2023-05-25T05:02:01.626Z,99965.16
2023-05-25T05:04:30.423Z,99970.25
2023-05-25T05:06:59.858Z,99966.00
2023-05-25T05:09:30.408Z,99966.69
2023-05-25T05:12:00.968Z,99972.63
2023-05-25T05:14:31.810Z,99964.28
2023-05-25T05:17:00.011Z,99972.84
2023-05-25T05:19:29.333Z,99972.88
2023-05-25T05:21:57.463Z,99963.63
2023-05-25T05:24:27.250Z,99965.34
2023-05-25T05:26:58.305Z,99959.44
2023-05-25T05:29:40.950Z,99969.63
2023-05-25T05:32:09.434Z,99973.03
2023-05-25T05:34:37.592Z,99969.72
2023-05-25T05:37:10.560Z,99965.47
2023-05-25T05:39:38.708Z,99964.59
2023-05-25T05:42:08.155Z,99974.69
2023-05-25T05:44:36.289Z,99983.16
2023-05-25T05:47:06.570Z,99970.47
2023-05-25T05:49:35.378Z,99981.44
2023-05-25T05:52:04.490Z,99989.84
2023-05-25T05:54:33.647Z,99988.16
2023-05-25T05:57:07.119Z,99997.44
2023-05-25T05:59:35.685Z,99989.84
2023-05-25T06:02:05.267Z,99998.28
2023-05-25T06:04:33.369Z,100003.34
2023-05-25T06:07:01.255Z,100005.94
2023-05-25T06:09:29.273Z,100000.00
2023-05-25T06:12:01.647Z,99997.50
2023-05-25T06:14:30.231Z,100012.69
2023-05-25T06:17:01.850Z,100011.03
2023-05-25T06:19:41.912Z,100011.88
2023-05-25T06:22:09.903Z,100002.63
2023-05-25T06:24:37.845Z,100010.25
2023-05-25T06:27:06.893Z,100011.94
2023-05-25T06:29:35.096Z,100000.09
2023-05-25T06:32:04.739Z,100002.66
2023-05-25T06:34:37.906Z,100005.19
2023-05-25T06:37:07.101Z,99976.47
2023-05-25T06:39:36.249Z,99993.44
2023-05-25T06:42:04.884Z,100002.69
2023-05-25T06:44:35.205Z,100008.59
2023-05-25T06:47:04.087Z,100005.22
2023-05-25T06:49:32.745Z,100008.66
2023-05-25T06:52:02.446Z,100004.47
2023-05-25T06:54:31.021Z,100009.50
2023-05-25T06:56:59.213Z,100003.63
2023-05-25T06:59:27.196Z,100008.72
2023-05-25T07:01:56.206Z,100005.34
2023-05-25T07:04:24.410Z,99999.41
2023-05-25T07:06:53.200Z,100004.50
2023-05-25T07:09:22.598Z,100001.97
2023-05-25T07:11:50.648Z,100003.69
2023-05-25T07:14:18.989Z,100007.06
2023-05-25T07:16:46.857Z,100018.00
2023-05-25T07:19:15.020Z,100003.69
2023-05-25T07:21:42.964Z,100014.63
2023-05-25T07:24:10.988Z,100014.66
2023-05-25T07:26:40.505Z,100021.41
2023-05-25T07:29:08.607Z,100007.91
2023-05-25T07:31:39.104Z,100011.28
2023-05-25T07:34:07.147Z,100010.47
2023-05-25T07:36:35.147Z,100008.75
2023-05-25T07:39:03.189Z,100006.25
2023-05-25T07:41:31.276Z,100007.94
2023-05-25T07:44:00.694Z,100013.84
2023-05-25T07:46:28.795Z,100003.69
2023-05-25T07:48:58.354Z,100007.06
2023-05-25T07:51:27.148Z,100010.44
2023-05-25T07:53:55.364Z,100011.31
2023-05-25T07:56:23.451Z,100011.31
2023-05-25T07:58:51.404Z,100009.63
2023-05-25T08:01:20.701Z,100004.56
2023-05-25T08:03:50.150Z,100012.16
2023-05-25T08:06:18.435Z,100018.91
2023-05-25T08:08:47.018Z,100018.06
2023-05-25T08:11:17.240Z,100025.66
2023-05-25T08:13:45.334Z,100022.28
2023-05-25T08:16:13.238Z,100021.44
2023-05-25T08:18:46.551Z,100026.50
2023-05-25T08:21:14.801Z,100019.75
2023-05-25T08:23:43.900Z,100025.66
2023-05-25T08:26:31.180Z,100023.94
2023-05-25T08:29:02.282Z,99994.41
2023-05-25T08:31:30.369Z,100012.97
2023-05-25T08:34:00.419Z,100009.59
2023-05-25T08:36:28.678Z,100015.50
2023-05-25T08:38:57.096Z,100017.16
2023-05-25T08:41:25.120Z,100015.47
2023-05-25T08:43:53.245Z,100018.84
2023-05-25T08:46:30.876Z,100019.72
2023-05-25T08:49:05.999Z,100021.38
2023-05-25T08:51:38.065Z,100017.19
2023-05-25T08:54:10.669Z,100014.66
2023-05-25T08:56:46.281Z,100012.09
2023-05-25T08:59:24.292Z,100011.28
2023-05-25T09:02:09.742Z,100013.78
2023-05-25T09:04:39.842Z,100006.16
2023-05-25T09:07:10.809Z,100001.09
2023-05-25T09:09:40.433Z,99995.97
2023-05-25T09:12:09.462Z,99999.31
2023-05-25T09:14:39.776Z,99993.41
2023-05-25T09:17:08.015Z,99989.19
2023-05-25T09:19:37.534Z,100002.69
2023-05-25T09:22:15.049Z,100002.66
2023-05-25T09:24:45.334Z,100018.66
2023-05-25T09:27:17.400Z,100016.13
2023-05-25T09:29:45.291Z,100013.59
2023-05-25T09:32:13.828Z,100010.22
2023-05-25T09:34:44.971Z,100010.22
2023-05-25T09:37:15.400Z,100011.88
2023-05-25T09:39:44.643Z,100015.25
2023-05-25T09:42:13.419Z,100007.59
2023-05-25T09:44:42.770Z,100012.72
2023-05-25T09:47:13.879Z,100008.47
2023-05-25T09:49:44.447Z,100007.53
2023-05-25T09:52:15.775Z,100006.69
2023-05-25T09:54:45.778Z,100018.53
2023-05-25T09:57:13.750Z,100021.06
2023-05-25T09:59:42.831Z,100013.44
2023-05-25T10:02:10.836Z,99997.41
2023-05-25T10:04:38.854Z,100021.00
2023-05-25T10:07:07.217Z,100012.50
2023-05-25T10:09:41.641Z,100010.78
2023-05-25T10:12:10.262Z,100009.03
2023-05-25T10:14:39.237Z,100006.50
2023-05-25T10:17:07.992Z,100010.78
2023-05-25T10:19:41.485Z,100001.41
2023-05-25T10:22:16.911Z,100004.78
2023-05-25T10:24:54.764Z,100005.63
2023-05-25T10:27:27.538Z,100005.59
2023-05-25T10:29:57.431Z,99988.66
2023-05-25T10:32:27.199Z,99994.50
2023-05-25T10:34:57.858Z,99995.34
2023-05-25T10:37:28.161Z,99992.78
2023-05-25T10:39:59.100Z,99993.53
2023-05-25T10:42:27.993Z,99979.19
2023-05-25T10:44:56.655Z,99985.97
2023-05-25T10:47:25.677Z,99985.91
2023-05-25T10:49:55.371Z,99985.91
2023-05-25T10:52:27.662Z,99981.63
2023-05-25T10:55:01.549Z,99976.53
2023-05-25T10:57:29.911Z,99975.69
2023-05-25T11:00:06.102Z,99962.13
2023-05-25T11:02:50.285Z,99965.50
2023-05-25T11:05:39.296Z,99969.69
2023-05-25T11:08:09.087Z,99963.69
2023-05-25T11:10:56.366Z,99960.28
2023-05-25T11:13:37.048Z,99967.00
2023-05-25T11:16:13.549Z,99950.91
2023-05-25T11:18:43.675Z,99964.34
2023-05-25T11:21:16.683Z,99947.41
2023-05-25T11:23:55.514Z,99943.22
2023-05-25T11:26:26.496Z,99939.75
2023-05-25T11:28:55.155Z,99954.91
2023-05-25T11:31:31.603Z,99953.09
2023-05-25T11:34:02.167Z,99937.78
2023-05-25T11:36:31.609Z,99943.53
2023-05-25T11:39:06.538Z,99941.72
2023-05-25T11:41:42.243Z,99942.50
2023-05-25T11:44:10.205Z,99937.47
2023-05-25T11:46:38.751Z,99937.47
2023-05-25T11:49:06.912Z,99923.06
2023-05-25T11:51:36.271Z,99922.16
2023-05-25T11:54:04.435Z,99933.91
2023-05-25T11:56:35.875Z,99932.03
2023-05-25T11:59:08.760Z,99930.31
2023-05-25T12:01:36.743Z,99930.31
2023-05-25T12:04:09.930Z,99923.56
2023-05-25T12:06:38.314Z,99926.84
2023-05-25T12:09:12.841Z,99925.81
2023-05-25T12:11:45.354Z,99923.16
2023-05-25T12:14:15.537Z,99919.59
2023-05-25T12:16:43.917Z,99922.84
2023-05-25T12:19:12.756Z,99911.78
2023-05-25T12:21:41.955Z,99908.16
2023-05-25T12:24:12.611Z,99910.50
2023-05-25T12:26:49.082Z,99899.31
2023-05-25T12:29:18.548Z,99897.59
2023-05-25T12:31:46.500Z,99899.78
2023-05-25T12:34:15.824Z,99901.47
2023-05-25T12:36:46.319Z,99908.88
2023-05-25T12:39:16.012Z,99908.69
2023-05-25T12:41:49.258Z,99899.22
2023-05-25T12:44:25.396Z,99901.50
2023-05-25T12:46:54.671Z,99901.19
2023-05-25T12:49:27.329Z,99894.28
2023-05-25T12:51:55.506Z,99896.09
2023-05-25T12:54:45.099Z,99895.00
2023-05-25T12:57:15.086Z,99894.63
2023-05-25T12:59:46.232Z,99887.41
2023-05-25T13:02:15.606Z,99883.94
2023-05-25T13:04:44.571Z,99881.47
2023-05-25T13:07:12.832Z,99868.59
2023-05-25T13:09:40.803Z,99880.03
2023-05-25T13:12:09.457Z,99881.66
2023-05-25T13:14:37.484Z,99877.97
2023-05-25T13:17:07.155Z,99875.31
2023-05-25T13:19:35.194Z,99872.72
2023-05-25T13:22:03.191Z,99870.84
2023-05-25T13:24:31.150Z,99861.97
2023-05-25T13:26:59.058Z,99858.19
2023-05-25T13:29:26.962Z,99864.22
2023-05-25T13:31:54.852Z,99859.69
2023-05-25T13:34:24.144Z,99858.31
2023-05-25T13:36:52.035Z,99846.19
2023-05-25T13:39:21.987Z,99843.63
2023-05-25T13:41:49.945Z,99846.69
2023-05-25T13:44:18.001Z,99836.06
2023-05-25T13:46:46.801Z,99838.16
2023-05-25T13:49:16.225Z,99828.53
2023-05-25T13:51:45.617Z,99831.50
2023-05-25T13:54:13.703Z,99830.94
2023-05-25T13:56:42.455Z,99833.59
2023-05-25T13:59:10.751Z,99824.47
2023-05-25T14:01:38.699Z,99825.56
2023-05-25T14:04:06.692Z,99827.28
2023-05-25T14:06:34.950Z,99826.25
2023-05-25T14:09:04.338Z,99823.22
2023-05-25T14:11:32.696Z,99816.16
2023-05-25T14:14:00.678Z,99822.16
2023-05-25T14:16:28.881Z,99816.44
2023-05-25T14:18:57.383Z,99813.34
2023-05-25T14:21:25.358Z,99805.31
2023-05-25T14:23:53.283Z,99809.22
2023-05-25T14:26:23.010Z,99803.16
2023-05-25T14:28:51.345Z,99809.50
2023-05-25T14:31:19.428Z,99799.78
2023-05-25T14:33:47.503Z,99793.38
2023-05-25T14:36:15.492Z,99804.44
2023-05-25T14:38:44.732Z,99798.22
2023-05-25T14:41:12.605Z,99799.44
2023-05-25T14:43:42.221Z,99802.56
2023-05-25T14:46:10.577Z,99807.59
2023-05-25T14:48:38.500Z,99800.97
2023-05-25T14:51:06.506Z,99808.53
2023-05-25T14:53:36.619Z,99804.13
2023-05-25T14:56:04.581Z,99801.22
2023-05-25T14:58:32.876Z,99800.72
2023-05-25T15:01:02.136Z,99790.28
2023-05-25T15:03:30.259Z,99794.31
2023-05-25T15:05:58.281Z,99781.25
2023-05-25T15:08:26.122Z,99797.44
2023-05-25T15:10:54.173Z,99786.34
2023-05-25T15:13:22.707Z,99783.81
2023-05-25T15:15:52.081Z,99788.00
2023-05-25T15:18:21.494Z,99788.63
2023-05-25T15:20:49.429Z,99791.53
2023-05-25T15:23:17.459Z,99782.16
2023-05-25T15:25:45.500Z,99786.22
2023-05-25T15:28:13.370Z,99784.38
2023-05-25T15:30:41.330Z,99791.06
2023-05-25T15:33:09.604Z,99796.38
2023-05-25T15:35:38.892Z,99779.59
2023-05-25T15:38:06.926Z,99793.97
2023-05-25T15:40:37.001Z,99794.31
2023-05-25T15:43:04.950Z,99775.91
2023-05-25T15:45:32.933Z,99788.53
2023-05-25T15:48:00.927Z,99784.91
2023-05-25T15:50:28.861Z,99788.78
2023-05-25T15:52:58.193Z,99789.41
2023-05-25T15:55:43.171Z,99786.16
2023-05-25T15:58:12.413Z,99789.63
2023-05-25T16:00:40.392Z,99778.47
2023-05-25T16:03:08.417Z,99786.72
2023-05-25T16:05:36.325Z,99789.75
2023-05-25T16:08:05.663Z,99778.91
2023-05-25T16:10:33.607Z,99785.38
2023-05-25T16:13:01.706Z,99783.72
2023-05-25T16:15:29.707Z,99792.63
2023-05-25T16:17:57.566Z,99793.06
2023-05-25T16:20:25.464Z,99787.16
2023-05-25T16:22:53.382Z,99794.88
2023-05-25T16:25:22.606Z,99794.75
2023-05-25T16:27:50.596Z,99797.22
2023-05-25T16:30:18.595Z,99792.44
2023-05-25T16:32:46.503Z,99797.47
2023-05-25T16:35:14.482Z,99802.09
2023-05-25T16:37:42.374Z,99804.25
2023-05-25T16:40:10.993Z,99808.94
2023-05-25T16:42:40.340Z,99809.66
2023-05-25T16:45:09.201Z,99801.94
2023-05-25T16:47:37.185Z,99795.94
2023-05-25T16:50:05.928Z,99800.47
2023-05-25T16:52:33.785Z,99805.09
2023-05-25T16:55:01.872Z,99802.31
2023-05-25T16:57:29.848Z,99799.84
2023-05-25T16:59:59.123Z,99793.16
2023-05-25T17:02:27.199Z,99807.72
2023-05-25T17:04:55.153Z,99804.63
2023-05-25T17:07:23.062Z,99811.16
2023-05-25T17:09:50.990Z,99815.47
2023-05-25T17:12:18.903Z,99806.81
2023-05-25T17:14:46.881Z,99804.59
2023-05-25T17:17:16.484Z,99805.63
2023-05-25T17:19:44.399Z,99802.72
2023-05-25T17:22:12.468Z,99796.69
2023-05-25T17:24:40.357Z,99804.50
2023-05-25T17:27:08.228Z,99800.59
2023-05-25T17:29:36.842Z,99796.91
2023-05-25T17:32:05.019Z,99804.81
2023-05-25T17:34:34.426Z,99789.00
2023-05-25T17:37:02.374Z,99815.09
2023-05-25T17:39:30.340Z,99789.50
2023-05-25T17:41:58.308Z,99793.22
2023-05-25T17:44:26.896Z,99796.66
2023-05-25T17:46:54.914Z,99795.41
2023-05-25T17:49:22.894Z,99807.56
2023-05-25T17:51:52.303Z,99795.25
2023-05-25T17:54:25.518Z,99803.97
2023-05-25T17:56:53.726Z,99808.16
2023-05-25T17:59:21.836Z,99807.03
2023-05-25T18:01:49.989Z,99809.16
2023-05-25T18:04:19.491Z,99817.13
2023-05-25T18:06:49.752Z,99811.56
2023-05-25T18:09:19.200Z,99800.72
2023-05-25T18:11:48.116Z,99806.00
2023-05-25T18:14:15.999Z,99807.97
2023-05-25T18:16:44.763Z,99807.28
2023-05-25T18:19:15.199Z,99806.53
2023-05-25T18:21:43.185Z,99799.06
2023-05-25T18:24:11.248Z,99790.78
2023-05-25T18:26:41.620Z,99806.16
2023-05-25T18:29:09.731Z,99804.63
2023-05-25T18:31:37.869Z,99796.22
2023-05-25T18:34:07.494Z,99809.97
2023-05-25T18:36:36.363Z,99800.00
2023-05-25T18:39:05.177Z,99818.63
2023-05-25T18:41:33.142Z,99832.19
2023-05-25T18:44:02.423Z,99817.81
2023-05-25T18:46:30.546Z,99801.09
2023-05-25T18:48:58.565Z,99831.44
2023-05-25T18:51:26.834Z,99836.56
2023-05-25T18:53:54.766Z,99833.16
2023-05-25T18:56:22.813Z,99834.88
2023-05-25T18:58:52.062Z,99842.50
2023-05-25T19:01:21.418Z,99852.63
2023-05-25T19:03:49.428Z,99849.16
2023-05-25T19:06:17.411Z,99861.78
2023-05-25T19:08:45.281Z,99853.38
2023-05-25T19:11:14.462Z,99864.44
2023-05-25T19:13:42.491Z,99864.38
2023-05-25T19:16:10.382Z,99867.88
2023-05-25T19:18:39.851Z,99872.25
2023-05-25T19:21:07.859Z,99879.00
2023-05-25T19:23:36.115Z,99878.94
2023-05-25T19:26:04.019Z,99868.03
2023-05-25T19:28:31.998Z,99884.84
2023-05-25T19:31:00.940Z,99889.94
2023-05-25T19:33:28.934Z,99886.59
2023-05-25T19:35:58.230Z,99899.28
2023-05-25T19:38:28.846Z,99889.97
2023-05-25T19:41:02.422Z,99896.75
2023-05-25T19:43:30.270Z,99898.56
2023-05-25T19:45:58.261Z,99892.63
2023-05-25T19:48:27.405Z,99895.19
2023-05-25T19:50:55.477Z,99897.72
2023-05-25T19:53:24.701Z,99902.84
2023-05-25T19:55:52.592Z,99909.63
2023-05-25T19:58:20.489Z,99911.34
2023-05-25T20:00:48.528Z,99913.09
2023-05-25T20:03:17.774Z,99919.91
2023-05-25T20:05:46.422Z,99920.78
2023-05-25T20:08:14.503Z,99908.97
2023-05-25T20:10:44.887Z,99920.06
2023-05-25T20:13:12.826Z,99922.63
2023-05-25T20:15:40.735Z,99926.19
2023-05-25T20:18:08.731Z,99927.16
2023-05-25T20:20:36.803Z,99925.47
2023-05-25T20:23:05.034Z,99914.59
2023-05-25T20:25:33.014Z,99929.81
2023-05-25T20:28:02.317Z,99917.22
2023-05-25T20:30:30.479Z,99924.94
2023-05-25T20:32:58.419Z,99933.41
2023-05-25T20:35:26.466Z,99927.56
2023-05-25T20:37:54.322Z,99941.13
2023-05-25T20:40:22.337Z,99933.53
2023-05-25T20:42:50.191Z,99946.16
2023-05-25T20:45:19.480Z,99941.09
2023-05-25T20:47:47.513Z,99947.00
2023-05-25T20:50:15.532Z,99938.56
2023-05-25T20:52:43.413Z,99943.69
2023-05-25T20:55:11.449Z,99948.78
2023-05-25T20:57:39.388Z,99953.88
2023-05-25T21:00:08.445Z,99949.63
2023-05-25T21:02:37.744Z,99952.16
2023-05-25T21:05:06.482Z,99953.00
2023-05-25T21:07:34.412Z,99952.97
2023-05-25T21:10:02.898Z,99952.13
2023-05-25T21:12:32.061Z,99952.97
2023-05-25T21:15:00.074Z,99949.59
2023-05-25T21:17:29.423Z,99947.91
2023-05-25T21:19:58.993Z,99947.91
2023-05-25T21:22:27.108Z,99952.97
2023-05-25T21:24:55.148Z,99953.81
2023-05-25T21:27:23.465Z,99953.81
2023-05-25T21:29:51.340Z,99949.63
2023-05-25T21:32:19.276Z,99952.16
2023-05-25T21:34:47.124Z,99944.59
2023-05-25T21:37:16.398Z,99960.63
2023-05-25T21:39:44.963Z,99955.56
2023-05-25T21:42:12.904Z,99958.09
2023-05-25T21:44:40.795Z,99956.41
2023-05-25T21:47:08.794Z,99959.78
2023-05-25T21:49:36.698Z,99954.75
2023-05-25T21:52:20.774Z,99959.81
2023-05-25T21:54:48.817Z,99964.03
2023-05-25T21:57:16.792Z,99958.94
2023-05-25T21:59:44.668Z,99962.31
2023-05-25T22:02:12.665Z,99965.69
2023-05-25T22:04:40.605Z,99967.38
2023-05-25T22:07:08.467Z,99965.69
2023-05-25T22:09:37.818Z,99968.22
2023-05-25T22:12:06.782Z,99968.25
2023-05-25T22:14:34.736Z,99967.41
2023-05-25T22:17:02.824Z,99969.91
2023-05-25T22:19:31.100Z,99965.69
2023-05-25T22:21:59.016Z,99976.66
2023-05-25T22:24:26.952Z,99972.44
2023-05-25T22:26:56.260Z,99969.94
2023-05-25T22:29:24.149Z,99966.53
2023-05-25T22:31:52.125Z,99964.00
2023-05-25T22:34:19.996Z,99963.97
2023-05-25T22:36:47.863Z,99969.91
2023-05-25T22:39:15.825Z,99969.06
2023-05-25T22:41:43.712Z,99962.28
2023-05-25T22:44:13.022Z,99963.16
2023-05-25T22:46:40.967Z,99960.63
2023-05-25T22:49:08.908Z,99963.16
2023-05-25T22:51:37.326Z,99961.47
2023-05-25T22:54:05.222Z,99959.78
2023-05-25T22:56:33.073Z,99958.94
2023-05-25T22:59:00.900Z,99955.53
2023-05-25T23:01:31.480Z,99953.00
2023-05-25T23:04:00.437Z,99958.06
2023-05-25T23:06:28.422Z,99962.28
2023-05-25T23:08:56.380Z,99964.78
2023-05-25T23:11:25.375Z,99951.28
2023-05-25T23:13:54.721Z,99955.47
2023-05-25T23:16:22.726Z,99967.31
2023-05-25T23:18:57.541Z,99970.69
2023-05-25T23:21:29.678Z,99963.09
2023-05-25T23:23:59.532Z,99968.13
2023-05-25T23:26:28.539Z,99971.47
2023-05-25T23:28:56.795Z,99976.50
2023-05-25T23:31:24.827Z,99967.19
2023-05-25T23:33:54.190Z,99968.03
2023-05-25T23:36:22.077Z,99973.91
2023-05-25T23:38:50.013Z,99968.03
2023-05-25T23:41:18.027Z,99967.22
2023-05-25T23:43:46.422Z,99964.66
2023-05-25T23:46:16.308Z,99965.50
2023-05-25T23:48:44.425Z,99963.81
2023-05-25T23:51:13.729Z,99967.16
2023-05-25T23:53:41.626Z,99959.56
2023-05-25T23:56:09.594Z,99964.59
2023-05-25T23:58:37.493Z,99960.41
